Terminal Aerodrome Forecast
Issued by NWS Louisville, KY

Home | Current Version | Previous Version | Text Only | Print | Product List | Glossary On
Versions: 1 2 3 4 5 6 7 8 9 10 11 12 13 14 15 16 17 18 19 20 21 22 23 24
000
FTUS43 KLMK 191120
TAFLEX
TAF
KLEX 191120Z 1912/2012 11006KT P6SM BKN100
     FM192000 12007KT P6SM VCSH BKN040
     FM192300 12008KT 5SM -SHRA OVC025
     FM200000 12008KT 4SM -RA OVC015
     FM200300 13008KT 3SM RA BKN008
     FM200500 16006KT 3SM SHRA BKN004=

USA.gov is the U.S. government's official web portal to all federal, state and local government web resources and services.